createdAt,value
2023-11-18T00:02:00.950Z,1.60
2023-11-18T00:04:27.706Z,1.60
2023-11-18T00:06:55.553Z,1.60
2023-11-18T00:09:23.711Z,1.50
2023-11-18T00:11:50.380Z,1.50
2023-11-18T00:14:17.047Z,1.50
2023-11-18T00:16:43.727Z,1.60
2023-11-18T00:19:10.540Z,1.50
2023-11-18T00:21:37.335Z,1.50
2023-11-18T00:24:05.063Z,1.40
2023-11-18T00:26:31.829Z,1.40
2023-11-18T00:28:58.500Z,1.30
2023-11-18T00:31:26.117Z,1.30
2023-11-18T00:33:53.502Z,1.30
2023-11-18T00:36:20.970Z,1.30
2023-11-18T00:38:48.378Z,1.30
2023-11-18T00:41:15.022Z,1.30
2023-11-18T00:43:41.673Z,1.40
2023-11-18T00:46:08.307Z,1.40
2023-11-18T00:48:34.930Z,1.40
2023-11-18T00:51:01.588Z,1.40
2023-11-18T00:53:28.217Z,1.30
2023-11-18T00:55:54.923Z,1.30
2023-11-18T00:58:21.552Z,1.30
2023-11-18T01:00:48.136Z,1.50
2023-11-18T01:03:14.873Z,1.50
2023-11-18T01:05:41.869Z,1.40
2023-11-18T01:08:09.765Z,1.30
2023-11-18T01:10:36.533Z,1.30
2023-11-18T01:13:03.284Z,1.30
2023-11-18T01:15:30.027Z,1.30
2023-11-18T01:17:56.771Z,1.30
2023-11-18T01:20:23.873Z,1.30
2023-11-18T01:22:50.821Z,1.30
2023-11-18T01:25:20.556Z,1.40
2023-11-18T01:27:47.798Z,1.40
2023-11-18T01:30:15.368Z,1.50
2023-11-18T01:32:42.245Z,1.50
2023-11-18T01:35:11.993Z,1.50
2023-11-18T01:37:39.482Z,1.40
2023-11-18T01:40:08.528Z,1.40
2023-11-18T01:42:35.876Z,1.40
2023-11-18T01:45:04.626Z,1.50
2023-11-18T01:47:34.484Z,1.50
2023-11-18T01:50:02.327Z,1.70
2023-11-18T01:52:31.284Z,1.70
2023-11-18T01:54:59.240Z,1.70
2023-11-18T01:57:27.899Z,1.70
2023-11-18T01:59:55.248Z,1.80
2023-11-18T02:02:23.181Z,1.80
2023-11-18T02:04:50.431Z,1.90
2023-11-18T02:07:17.338Z,1.90
2023-11-18T02:09:44.384Z,1.90
2023-11-18T02:12:29.106Z,1.90
2023-11-18T02:14:58.775Z,1.90
2023-11-18T02:17:27.113Z,1.80
2023-11-18T02:19:59.313Z,1.80
2023-11-18T02:22:27.565Z,1.80
2023-11-18T02:24:54.219Z,1.80
2023-11-18T02:27:23.034Z,1.70
2023-11-18T02:29:52.095Z,1.60
2023-11-18T02:32:35.299Z,1.50
2023-11-18T02:35:44.145Z,1.50
2023-11-18T02:38:11.662Z,1.40
2023-11-18T02:40:44.285Z,1.30
2023-11-18T02:43:12.247Z,1.40
2023-11-18T02:45:42.399Z,1.30
2023-11-18T02:48:09.941Z,1.30
2023-11-18T02:50:37.081Z,1.20
2023-11-18T02:53:03.966Z,1.20
2023-11-18T02:55:30.806Z,1.20
2023-11-18T02:57:58.100Z,1.10
2023-11-18T03:00:24.963Z,1.10
2023-11-18T03:02:53.079Z,1.20
2023-11-18T03:05:20.393Z,1.10
2023-11-18T03:07:55.578Z,1.10
2023-11-18T03:10:23.460Z,1.20
2023-11-18T03:12:54.748Z,1.10
2023-11-18T03:15:24.116Z,1.20
2023-11-18T03:17:52.249Z,1.20
2023-11-18T03:20:21.715Z,1.20
2023-11-18T03:22:49.037Z,1.20
2023-11-18T03:25:16.276Z,1.20
2023-11-18T03:27:43.776Z,1.10
2023-11-18T03:30:10.989Z,1.10
2023-11-18T03:32:39.281Z,1.20
2023-11-18T03:35:11.079Z,1.20
2023-11-18T03:37:45.015Z,1.20
2023-11-18T03:40:14.357Z,1.10
2023-11-18T03:42:47.399Z,1.10
2023-11-18T03:45:16.104Z,1.10
2023-11-18T03:47:43.468Z,1.20
2023-11-18T03:50:10.948Z,1.20
2023-11-18T03:52:38.949Z,1.20
2023-11-18T03:55:06.270Z,1.20
2023-11-18T03:57:33.008Z,1.10
2023-11-18T03:59:59.623Z,1.10
2023-11-18T04:02:26.674Z,1.20
2023-11-18T04:04:54.274Z,1.30
2023-11-18T04:07:22.813Z,1.20
2023-11-18T04:09:49.477Z,1.30
2023-11-18T04:12:17.166Z,1.30
2023-11-18T04:14:44.246Z,1.30
2023-11-18T04:17:11.055Z,1.20
2023-11-18T04:19:38.494Z,1.30
2023-11-18T04:22:05.675Z,1.20
2023-11-18T04:24:32.440Z,1.20
2023-11-18T04:26:59.082Z,1.20
2023-11-18T04:29:27.635Z,1.20
2023-11-18T04:31:54.546Z,1.30
2023-11-18T04:34:21.378Z,1.30
2023-11-18T04:36:48.289Z,1.30
2023-11-18T04:39:16.911Z,1.40
2023-11-18T04:41:43.872Z,1.40
2023-11-18T04:44:10.506Z,1.40
2023-11-18T04:46:37.923Z,1.50
2023-11-18T04:49:06.270Z,1.50
2023-11-18T04:51:33.921Z,1.50
2023-11-18T04:54:00.585Z,1.70
2023-11-18T04:56:27.301Z,1.80
2023-11-18T04:58:54.017Z,1.80
2023-11-18T05:01:20.731Z,1.80
2023-11-18T05:03:47.607Z,1.90
2023-11-18T05:06:14.314Z,1.90
2023-11-18T05:08:41.089Z,1.90
2023-11-18T05:11:07.775Z,1.90
2023-11-18T05:13:34.986Z,1.90
2023-11-18T05:16:02.182Z,1.90
2023-11-18T05:18:34.477Z,1.90
2023-11-18T05:21:01.672Z,1.90
2023-11-18T05:23:30.425Z,1.90
2023-11-18T05:25:57.334Z,1.80
2023-11-18T05:28:25.077Z,1.80
2023-11-18T05:30:52.480Z,1.80
2023-11-18T05:33:29.811Z,1.90
2023-11-18T05:35:56.596Z,1.90
2023-11-18T05:38:24.791Z,1.90
2023-11-18T05:40:58.049Z,2.00
2023-11-18T05:43:30.621Z,2.10
2023-11-18T05:46:21.890Z,2.20
2023-11-18T05:48:50.674Z,2.20
2023-11-18T05:51:22.963Z,2.30
2023-11-18T05:53:50.386Z,2.40
2023-11-18T05:56:20.525Z,2.30
2023-11-18T05:58:48.018Z,2.30
2023-11-18T06:01:15.254Z,2.20
2023-11-18T06:03:43.546Z,2.20
2023-11-18T06:06:13.452Z,2.10
2023-11-18T06:08:42.519Z,2.10
2023-11-18T06:11:16.503Z,2.10
2023-11-18T06:13:52.175Z,2.00
2023-11-18T06:16:27.263Z,1.80
2023-11-18T06:18:59.659Z,1.80
2023-11-18T06:21:31.944Z,1.80
2023-11-18T06:24:00.191Z,1.80
2023-11-18T06:26:28.353Z,1.80
2023-11-18T06:28:57.641Z,1.90
2023-11-18T06:31:25.205Z,2.00
2023-11-18T06:33:52.375Z,2.10
2023-11-18T06:36:23.227Z,2.10
2023-11-18T06:38:54.979Z,2.00
2023-11-18T06:41:34.262Z,2.00
2023-11-18T06:44:10.379Z,2.00
2023-11-18T06:46:41.319Z,2.10
2023-11-18T06:49:08.723Z,2.20
2023-11-18T06:51:38.755Z,2.30
2023-11-18T06:54:13.217Z,2.30
2023-11-18T06:56:43.895Z,2.40
2023-11-18T06:59:13.679Z,2.40
2023-11-18T07:01:41.863Z,2.50
2023-11-18T07:04:11.412Z,2.50
2023-11-18T07:06:42.171Z,2.50
2023-11-18T07:09:14.381Z,2.40
2023-11-18T07:11:42.243Z,2.50
2023-11-18T07:14:10.742Z,2.40
2023-11-18T07:16:40.464Z,2.40
2023-11-18T07:19:08.564Z,2.30
2023-11-18T07:21:35.738Z,2.30
2023-11-18T07:24:05.639Z,2.40
2023-11-18T07:26:32.333Z,2.40
2023-11-18T07:28:58.979Z,2.40
2023-11-18T07:31:26.094Z,2.40
2023-11-18T07:33:53.518Z,2.40
2023-11-18T07:36:23.137Z,2.40
2023-11-18T07:38:51.274Z,2.50
2023-11-18T07:41:30.183Z,2.50
2023-11-18T07:43:58.527Z,2.60
2023-11-18T07:46:29.666Z,2.70
2023-11-18T07:48:57.904Z,2.60
2023-11-18T07:51:25.510Z,2.60
2023-11-18T07:53:53.749Z,2.60
2023-11-18T07:56:23.262Z,2.50
2023-11-18T07:58:50.203Z,2.60
2023-11-18T08:01:17.340Z,2.60
2023-11-18T08:03:44.905Z,2.70
2023-11-18T08:06:13.074Z,2.70
2023-11-18T08:08:41.747Z,2.70
2023-11-18T08:11:12.110Z,2.80
2023-11-18T08:13:38.824Z,2.70
2023-11-18T08:16:08.295Z,2.70
2023-11-18T08:18:36.642Z,2.70
2023-11-18T08:21:03.966Z,2.70
2023-11-18T08:23:31.459Z,2.70
2023-11-18T08:25:58.227Z,2.80
2023-11-18T08:28:25.224Z,2.80
2023-11-18T08:30:52.566Z,2.70
2023-11-18T08:33:20.770Z,2.80
2023-11-18T08:35:47.529Z,2.80
2023-11-18T08:38:14.295Z,2.80
2023-11-18T08:40:41.593Z,2.90
2023-11-18T08:43:09.086Z,3.00
2023-11-18T08:45:37.251Z,3.00
2023-11-18T08:48:09.535Z,3.00
2023-11-18T08:50:40.837Z,3.10
2023-11-18T08:53:10.493Z,3.20
2023-11-18T08:55:41.841Z,3.30
2023-11-18T08:58:21.614Z,3.30
2023-11-18T09:01:02.539Z,3.30
2023-11-18T09:03:29.689Z,3.40
2023-11-18T09:05:59.544Z,3.40
2023-11-18T09:08:40.077Z,3.50
2023-11-18T09:11:15.594Z,3.70
2023-11-18T09:13:54.535Z,3.80
2023-11-18T09:16:30.217Z,4.00
2023-11-18T09:19:00.361Z,4.00
2023-11-18T09:21:30.314Z,4.10
2023-11-18T09:24:00.033Z,4.20
2023-11-18T09:26:30.913Z,4.20
2023-11-18T09:28:59.262Z,4.30
2023-11-18T09:31:26.030Z,4.40
2023-11-18T09:33:58.413Z,4.50
2023-11-18T09:36:25.141Z,4.50
2023-11-18T09:38:51.842Z,4.60
2023-11-18T09:41:19.470Z,4.70
2023-11-18T09:43:48.213Z,4.70
2023-11-18T09:46:18.439Z,4.70
2023-11-18T09:48:53.645Z,4.80
2023-11-18T09:51:25.738Z,5.00
2023-11-18T09:54:01.268Z,5.00
2023-11-18T09:57:09.603Z,5.00
2023-11-18T10:00:20.833Z,5.10
2023-11-18T10:02:52.396Z,5.10
2023-11-18T10:05:22.148Z,5.10
2023-11-18T10:07:50.248Z,5.10
2023-11-18T10:10:17.492Z,5.10
2023-11-18T10:12:45.960Z,5.10
2023-11-18T10:15:15.587Z,5.00
2023-11-18T10:17:58.216Z,4.90
2023-11-18T10:20:48.604Z,5.00
2023-11-18T10:23:20.414Z,5.00
2023-11-18T10:25:53.702Z,4.90
2023-11-18T10:28:34.601Z,4.90
2023-11-18T10:31:06.747Z,4.80
2023-11-18T10:33:37.023Z,4.80
2023-11-18T10:36:05.575Z,4.90
2023-11-18T10:38:40.165Z,4.90
2023-11-18T10:41:07.545Z,4.90
2023-11-18T10:43:37.048Z,5.00
2023-11-18T10:46:13.683Z,5.00
2023-11-18T10:48:49.416Z,5.00
2023-11-18T10:51:21.414Z,5.20
2023-11-18T10:53:54.783Z,5.40
2023-11-18T10:56:27.637Z,5.40
2023-11-18T10:59:07.022Z,5.70
2023-11-18T11:01:50.079Z,5.50
2023-11-18T11:04:23.401Z,5.60
2023-11-18T11:06:54.808Z,5.70
2023-11-18T11:09:28.234Z,5.70
2023-11-18T11:12:01.014Z,5.70
2023-11-18T11:14:42.246Z,5.70
2023-11-18T11:17:18.616Z,5.60
2023-11-18T11:20:18.432Z,5.60
2023-11-18T11:23:22.745Z,5.60
2023-11-18T11:26:39.983Z,5.60
2023-11-18T11:29:33.903Z,5.60
2023-11-18T11:32:31.680Z,5.60
2023-11-18T11:35:08.890Z,5.60
2023-11-18T11:37:36.170Z,5.60
2023-11-18T11:40:10.670Z,5.50
2023-11-18T11:42:40.656Z,5.60
2023-11-18T11:45:20.943Z,5.70
2023-11-18T11:47:51.354Z,5.70
2023-11-18T11:50:32.990Z,5.70
2023-11-18T11:53:16.309Z,5.70
2023-11-18T11:55:54.390Z,5.80
2023-11-18T11:58:32.317Z,5.80
2023-11-18T12:01:09.056Z,5.80
2023-11-18T12:03:46.231Z,5.90
2023-11-18T12:06:17.121Z,5.90
2023-11-18T12:08:45.199Z,5.90
2023-11-18T12:11:13.827Z,5.90
2023-11-18T12:13:40.946Z,5.90
2023-11-18T12:16:11.232Z,5.90
2023-11-18T12:18:38.229Z,5.90
2023-11-18T12:21:05.741Z,5.90
2023-11-18T12:23:35.489Z,6.00
2023-11-18T12:26:44.660Z,6.00
2023-11-18T12:29:47.078Z,5.90
2023-11-18T12:33:10.807Z,5.90
2023-11-18T12:35:53.981Z,5.90
2023-11-18T12:38:59.498Z,5.90
2023-11-18T12:41:40.992Z,5.90
2023-11-18T12:44:21.965Z,6.00
2023-11-18T12:46:58.031Z,6.00
2023-11-18T12:49:25.921Z,6.00
2023-11-18T12:52:01.116Z,6.00
2023-11-18T12:54:29.541Z,6.00
2023-11-18T12:56:57.201Z,6.00
2023-11-18T12:59:24.661Z,5.90
2023-11-18T13:01:57.907Z,5.90
2023-11-18T13:04:25.488Z,6.00
2023-11-18T13:06:52.529Z,6.00
2023-11-18T13:09:31.148Z,5.90
2023-11-18T13:12:03.119Z,5.90
2023-11-18T13:14:37.622Z,5.90
2023-11-18T13:17:06.804Z,5.90
2023-11-18T13:19:35.356Z,5.90
2023-11-18T13:22:04.887Z,5.90
2023-11-18T13:24:32.354Z,5.90
2023-11-18T13:27:04.709Z,5.90
2023-11-18T13:29:32.946Z,5.90
2023-11-18T13:32:04.680Z,5.90
2023-11-18T13:34:38.866Z,5.90
2023-11-18T13:37:08.156Z,5.90
2023-11-18T13:39:42.570Z,5.90
2023-11-18T13:42:24.394Z,5.90
2023-11-18T13:44:53.704Z,5.90
2023-11-18T13:47:26.212Z,5.90
2023-11-18T13:49:55.654Z,6.00
2023-11-18T13:52:23.778Z,6.10
2023-11-18T13:54:56.483Z,6.10
2023-11-18T13:57:23.398Z,6.10
2023-11-18T13:59:51.576Z,6.10
2023-11-18T14:02:18.543Z,6.10
2023-11-18T14:04:45.759Z,6.20
2023-11-18T14:07:18.207Z,6.20
2023-11-18T14:09:46.381Z,6.30
2023-11-18T14:12:14.847Z,6.30
2023-11-18T14:14:41.519Z,6.30
2023-11-18T14:17:11.099Z,6.20
2023-11-18T14:19:38.789Z,6.10
2023-11-18T14:22:10.497Z,6.20
2023-11-18T14:24:37.164Z,6.20
2023-11-18T14:27:05.675Z,6.20
2023-11-18T14:29:32.541Z,6.20
2023-11-18T14:31:59.563Z,6.10
2023-11-18T14:34:26.594Z,6.10
2023-11-18T14:36:53.222Z,6.10
2023-11-18T14:39:23.322Z,6.10
2023-11-18T14:41:51.253Z,6.10
2023-11-18T14:44:18.570Z,6.20
2023-11-18T14:46:46.698Z,6.10
2023-11-18T14:49:13.694Z,6.20
2023-11-18T14:51:41.296Z,6.20
2023-11-18T14:54:08.104Z,6.10
2023-11-18T14:56:35.911Z,6.10
2023-11-18T14:59:05.951Z,6.10
2023-11-18T15:01:32.686Z,6.20
2023-11-18T15:03:59.429Z,6.20
2023-11-18T15:06:27.721Z,6.10
2023-11-18T15:08:54.832Z,6.20
2023-11-18T15:11:24.742Z,6.20
2023-11-18T15:13:53.998Z,6.20
2023-11-18T15:16:22.260Z,6.20
2023-11-18T15:18:50.983Z,6.20
2023-11-18T15:21:17.909Z,6.20
2023-11-18T15:23:44.645Z,6.20
2023-11-18T15:26:11.782Z,6.20
2023-11-18T15:28:38.459Z,6.20
2023-11-18T15:31:05.645Z,6.30
2023-11-18T15:33:32.500Z,6.20
2023-11-18T15:35:59.747Z,6.20
2023-11-18T15:38:26.489Z,6.20
2023-11-18T15:40:54.187Z,6.20
2023-11-18T15:43:20.918Z,6.20
2023-11-18T15:45:47.925Z,6.30
2023-11-18T15:48:15.518Z,6.30
2023-11-18T15:50:42.614Z,6.30
2023-11-18T15:53:09.344Z,6.30
2023-11-18T15:55:37.063Z,6.30
2023-11-18T15:58:04.662Z,6.30
2023-11-18T16:00:31.661Z,6.30
2023-11-18T16:03:02.801Z,6.30
2023-11-18T16:05:35.438Z,6.30
2023-11-18T16:08:04.544Z,6.40
2023-11-18T16:10:31.418Z,6.30
2023-11-18T16:13:00.072Z,6.30
2023-11-18T16:15:29.146Z,6.30
2023-11-18T16:17:58.973Z,6.30
2023-11-18T16:20:34.071Z,6.30
2023-11-18T16:23:05.256Z,6.30
2023-11-18T16:25:34.867Z,6.30
2023-11-18T16:28:03.274Z,6.30
2023-11-18T16:30:31.134Z,6.30
2023-11-18T16:33:00.044Z,6.30
2023-11-18T16:35:27.428Z,6.30
2023-11-18T16:37:55.533Z,6.30
2023-11-18T16:40:24.576Z,6.30
2023-11-18T16:42:57.831Z,6.30
2023-11-18T16:45:25.764Z,6.30
2023-11-18T16:47:55.034Z,6.30
2023-11-18T16:50:24.433Z,6.30
2023-11-18T16:52:51.990Z,6.30
2023-11-18T16:55:19.282Z,6.30
2023-11-18T16:57:46.820Z,6.30
2023-11-18T17:00:18.453Z,6.30
2023-11-18T17:02:58.081Z,6.30
2023-11-18T17:05:30.308Z,6.30
2023-11-18T17:07:57.620Z,6.30
2023-11-18T17:10:24.905Z,6.30
2023-11-18T17:12:52.583Z,6.30
2023-11-18T17:15:20.009Z,6.30
2023-11-18T17:18:03.892Z,6.30
2023-11-18T17:20:31.609Z,6.30
2023-11-18T17:22:58.561Z,6.30
2023-11-18T17:25:25.335Z,6.30
2023-11-18T17:27:55.313Z,6.30
2023-11-18T17:30:22.600Z,6.30
2023-11-18T17:32:54.160Z,6.30
2023-11-18T17:35:21.463Z,6.30
2023-11-18T17:37:48.631Z,6.30
2023-11-18T17:40:16.681Z,6.30
2023-11-18T17:42:45.422Z,6.30
2023-11-18T17:45:13.701Z,6.30
2023-11-18T17:47:43.147Z,6.30
2023-11-18T17:50:14.794Z,6.30
2023-11-18T17:52:45.077Z,6.30
2023-11-18T17:55:21.505Z,6.30
2023-11-18T17:57:48.489Z,6.30
2023-11-18T18:00:23.382Z,6.30
2023-11-18T18:02:51.838Z,6.30
2023-11-18T18:05:18.783Z,6.30
2023-11-18T18:07:45.605Z,6.30
2023-11-18T18:10:15.268Z,6.30
2023-11-18T18:12:44.772Z,6.30
2023-11-18T18:15:13.829Z,6.30
2023-11-18T18:17:40.918Z,6.30
2023-11-18T18:20:10.685Z,6.30
2023-11-18T18:22:39.043Z,6.30
2023-11-18T18:25:06.921Z,6.30
2023-11-18T18:27:34.617Z,6.30
2023-11-18T18:30:02.123Z,6.30
2023-11-18T18:32:28.895Z,6.30
2023-11-18T18:34:55.636Z,6.30
2023-11-18T18:37:24.266Z,6.30
2023-11-18T18:39:53.653Z,6.30
2023-11-18T18:42:21.182Z,6.30
2023-11-18T18:44:48.557Z,6.30
2023-11-18T18:47:16.110Z,6.30
2023-11-18T18:49:43.289Z,6.30
2023-11-18T18:52:10.016Z,6.30
2023-11-18T18:54:36.768Z,6.40
2023-11-18T18:57:05.181Z,6.40
2023-11-18T18:59:32.268Z,6.40
2023-11-18T19:01:59.091Z,6.50
2023-11-18T19:04:25.770Z,6.40
2023-11-18T19:06:55.855Z,6.40
2023-11-18T19:09:22.758Z,6.40
2023-11-18T19:11:50.142Z,6.50
2023-11-18T19:14:16.858Z,6.40
2023-11-18T19:16:43.822Z,6.40
2023-11-18T19:19:11.063Z,6.40
2023-11-18T19:21:37.887Z,6.50
2023-11-18T19:24:05.061Z,6.50
2023-11-18T19:26:36.935Z,6.50
2023-11-18T19:29:04.304Z,6.50
2023-11-18T19:31:31.904Z,6.40
2023-11-18T19:34:00.266Z,6.40
2023-11-18T19:36:27.187Z,6.50
2023-11-18T19:38:54.293Z,6.50
2023-11-18T19:41:22.297Z,6.40
2023-11-18T19:43:50.017Z,6.50
2023-11-18T19:46:17.487Z,6.50
2023-11-18T19:48:44.336Z,6.50
2023-11-18T19:51:11.663Z,6.50
2023-11-18T19:53:38.385Z,6.50
2023-11-18T19:56:05.597Z,6.50
2023-11-18T19:58:32.816Z,6.50
2023-11-18T20:01:00.329Z,6.50
2023-11-18T20:03:27.081Z,6.50
2023-11-18T20:05:54.574Z,6.50
2023-11-18T20:08:21.299Z,6.50
2023-11-18T20:10:48.166Z,6.50
2023-11-18T20:13:16.142Z,6.50
2023-11-18T20:15:43.003Z,6.50
2023-11-18T20:18:12.736Z,6.60
2023-11-18T20:20:39.616Z,6.60
2023-11-18T20:23:07.243Z,6.50
2023-11-18T20:25:34.853Z,6.50
2023-11-18T20:28:01.829Z,6.50
2023-11-18T20:30:28.525Z,6.50
2023-11-18T20:32:56.976Z,6.50
2023-11-18T20:35:25.148Z,6.50
2023-11-18T20:37:52.642Z,6.60
2023-11-18T20:40:22.342Z,6.60
2023-11-18T20:42:50.956Z,6.50
2023-11-18T20:45:18.964Z,6.50
2023-11-18T20:47:47.334Z,6.60
2023-11-18T20:50:14.747Z,6.50
2023-11-18T20:52:43.239Z,6.60
2023-11-18T20:55:11.683Z,6.60
2023-11-18T20:57:39.247Z,6.60
2023-11-18T21:00:08.294Z,6.60
2023-11-18T21:02:35.954Z,6.60
2023-11-18T21:05:04.937Z,6.60
2023-11-18T21:07:32.140Z,6.60
2023-11-18T21:09:58.760Z,6.60
2023-11-18T21:12:25.639Z,6.60
2023-11-18T21:14:52.435Z,6.60
2023-11-18T21:17:21.046Z,6.60
2023-11-18T21:19:47.735Z,6.70
2023-11-18T21:22:18.593Z,6.60
2023-11-18T21:24:45.225Z,6.60
2023-11-18T21:27:11.893Z,6.70
2023-11-18T21:29:39.638Z,6.70
2023-11-18T21:32:06.887Z,6.70
2023-11-18T21:34:33.531Z,6.70
2023-11-18T21:37:03.103Z,6.80
2023-11-18T21:39:29.725Z,6.70
2023-11-18T21:41:56.372Z,6.80
2023-11-18T21:44:23.068Z,6.80
2023-11-18T21:46:51.322Z,6.80
2023-11-18T21:49:18.050Z,6.80
2023-11-18T21:51:45.021Z,6.80
2023-11-18T21:54:11.709Z,6.80
2023-11-18T21:56:38.455Z,6.80
2023-11-18T21:59:05.260Z,6.80
2023-11-18T22:01:32.968Z,6.90
2023-11-18T22:03:59.844Z,6.90
2023-11-18T22:06:26.675Z,6.90
2023-11-18T22:08:53.357Z,6.90
2023-11-18T22:11:20.378Z,6.90
2023-11-18T22:13:50.584Z,6.90
2023-11-18T22:16:17.326Z,6.90
2023-11-18T22:18:47.478Z,6.90
2023-11-18T22:21:14.178Z,6.90
2023-11-18T22:23:40.818Z,6.90
2023-11-18T22:26:08.261Z,6.90
2023-11-18T22:28:35.145Z,6.90
2023-11-18T22:31:01.818Z,7.00
2023-11-18T22:33:30.287Z,6.90
2023-11-18T22:35:57.015Z,6.90
2023-11-18T22:38:24.025Z,6.90
2023-11-18T22:40:51.077Z,6.90
2023-11-18T22:43:20.299Z,6.90
2023-11-18T22:45:49.806Z,6.90
2023-11-18T22:48:16.638Z,6.90
2023-11-18T22:50:45.051Z,6.90
2023-11-18T22:53:12.498Z,7.00
2023-11-18T22:55:39.777Z,7.00
2023-11-18T22:58:08.716Z,7.00
2023-11-18T23:00:44.248Z,7.00
2023-11-18T23:03:11.111Z,7.00
2023-11-18T23:05:40.429Z,7.10
2023-11-18T23:08:10.566Z,7.10
2023-11-18T23:10:40.888Z,7.10
2023-11-18T23:13:08.555Z,7.10
2023-11-18T23:15:40.114Z,7.10
2023-11-18T23:18:08.267Z,7.10
2023-11-18T23:20:37.996Z,7.10
2023-11-18T23:23:05.883Z,7.00
2023-11-18T23:25:34.043Z,7.10
2023-11-18T23:28:02.419Z,7.00
2023-11-18T23:30:30.612Z,7.00
2023-11-18T23:32:57.512Z,7.00
2023-11-18T23:35:24.205Z,7.00
2023-11-18T23:37:55.365Z,7.00
2023-11-18T23:40:24.020Z,7.00
2023-11-18T23:42:50.744Z,7.00
2023-11-18T23:45:19.576Z,7.00
2023-11-18T23:47:52.293Z,7.00
2023-11-18T23:50:20.621Z,7.10
2023-11-18T23:52:47.434Z,7.10
2023-11-18T23:55:14.734Z,7.10
2023-11-18T23:57:42.272Z,7.20
